Terminal Aerodrome Forecast
Issued by NWS

Home | Current Version | Previous Version | Text Only | Print | Product List | Glossary On
Versions: 1 2 3 4 5 6 7 8 9 10 11 12 13 14 15 16 17 18
000
FTUS43 KMQT 270800 AAA
TAFSAW
TAF AMD
KSAW 270837Z 2709/2806 34012KT P6SM -SHSN BKN035
      TEMPO 2709/2712 4SM -SHSN OVC025
     FM271200 33010KT P6SM -SHSN BKN035
     FM272100 32008KT P6SM BKN035
     FM280000 27003KT P6SM SCT250
      AMD LTD TO CLD VIS AND WIND TIL 271100=

USA.gov is the U.S. government's official web portal to all federal, state and local government web resources and services.